Time;durP1;ratioP1;P1;durP2;ratioP2;P2;SDS_P1;SDS_P2;PMS_P1;PMS_P2;Temp;Humidity;BMP_temperature;BMP_pressure;BME280_temperature;BME280_humidity;BME280_pressure;Samples;Min_cycle;Max_cycle;Signal;HPM_P1;HPM_P2
2023/07/04 00:00:26;;;;;;;;;;;;;;;25.08;46.80;96935.34;4210199;28;5608;-75
2023/07/04 00:02:29;;;;;;;;;;;;;;;25.09;46.56;96930.75;4218754;28;5612;-76
2023/07/04 00:04:33;;;;;;;;;;;;;;;25.10;46.46;96926.94;4219476;28;5612;-76
2023/07/04 00:06:36;;;;;;;;;;;;;;;25.10;46.58;96940.47;4234292;28;5731;-75
2023/07/04 00:08:39;;;;;;;;;;;;;;;25.10;46.31;96929.66;4218255;28;5723;-75
2023/07/04 00:10:43;;;;;;;;;;;;;;;25.10;46.34;96929.66;4218430;28;5629;-75
2023/07/04 00:12:46;;;;;;;;;;;;;;;25.10;46.62;96930.47;4218723;28;5616;-74
2023/07/04 00:14:49;;;;;;;;;;;;;;;25.11;46.66;96931.25;4218411;28;5612;-75
2023/07/04 00:16:52;;;;;;;;;;;;;;;25.08;46.50;96921.81;4218406;28;6412;-75
2023/07/04 00:18:55;;;;;;;;;;;;;;;25.08;46.15;96929.13;4218559;28;5688;-75
2023/07/04 00:21:03;;;;;;;;;;;;;;;25.05;46.35;96924.28;4218232;28;5734;-75
2023/07/04 00:23:06;;;;;;;;;;;;;;;25.03;46.40;96918.34;4232991;28;5604;-75
2023/07/04 00:25:10;;;;;;;;;;;;;;;25.00;46.33;96921.59;4229046;28;5838;-75
2023/07/04 00:27:13;;;;;;;;;;;;;;;25.00;46.33;96927.78;4218154;28;5707;-75
2023/07/04 00:29:17;;;;;;;;;;;;;;;25.03;46.42;96926.44;4218246;28;5620;-75
2023/07/04 00:31:23;;;;;;;;;;;;;;;25.02;46.15;96932.94;4217394;28;7667;-75
2023/07/04 00:33:28;;;;;;;;;;;;;;;25.00;46.44;96929.69;4209859;28;5621;-75
2023/07/04 00:35:31;;;;;;;;;;;;;;;24.98;46.13;96929.97;4218722;28;5600;-72
2023/07/04 00:37:36;;;;;;;;;;;;;;;24.98;46.14;96925.38;4224821;28;5698;-75
2023/07/04 00:39:40;;;;;;;;;;;;;;;24.95;45.99;96931.34;4220081;28;5604;-76
2023/07/04 00:41:43;;;;;;;;;;;;;;;24.91;46.39;96935.69;4224007;28;5612;-76
2023/07/04 00:43:59;;;;;;;;;;;;;;;24.93;46.33;96928.13;4217637;28;5904;-75
2023/07/04 00:46:03;;;;;;;;;;;;;;;24.92;46.33;96933.81;4218046;28;5620;-76
2023/07/04 00:48:06;;;;;;;;;;;;;;;24.92;46.36;96929.22;4217998;28;6174;-76
2023/07/04 00:50:09;;;;;;;;;;;;;;;24.94;46.31;96934.34;4209055;28;5836;-76
2023/07/04 00:52:17;;;;;;;;;;;;;;;24.95;46.33;96931.34;4216986;28;5898;-76
2023/07/04 00:54:24;;;;;;;;;;;;;;;24.93;45.84;96928.13;4217456;28;5644;-76
2023/07/04 00:56:30;;;;;;;;;;;;;;;24.90;46.31;96925.16;4224973;28;5601;-76
2023/07/04 00:58:34;;;;;;;;;;;;;;;24.90;45.93;96922.47;4209341;28;5613;-76
2023/07/04 01:00:38;;;;;;;;;;;;;;;24.91;46.14;96926.78;4217563;28;5708;-75
2023/07/04 01:02:45;;;;;;;;;;;;;;;24.93;46.01;96927.31;4226502;28;6303;-76
2023/07/04 01:04:50;;;;;;;;;;;;;;;24.92;45.78;96929.22;4229573;28;5711;-76
2023/07/04 01:07:00;;;;;;;;;;;;;;;24.92;45.87;96921.13;4222244;28;5619;-75
2023/07/04 01:09:08;;;;;;;;;;;;;;;24.94;45.75;96924.34;4217678;28;5675;-75
2023/07/04 01:11:17;;;;;;;;;;;;;;;24.96;45.76;96929.47;4226191;28;5631;-75
2023/07/04 01:13:33;;;;;;;;;;;;;;;24.97;45.89;96929.16;4217407;28;6274;-75
2023/07/04 01:15:37;;;;;;;;;;;;;;;24.98;45.67;96924.56;4219031;28;5597;-75
2023/07/04 01:17:41;;;;;;;;;;;;;;;24.95;46.03;96923.25;4217543;28;5700;-75
2023/07/04 01:19:45;;;;;;;;;;;;;;;24.95;46.07;96931.34;4225872;28;5707;-76
2023/07/04 01:21:52;;;;;;;;;;;;;;;24.95;45.90;96933.25;4225205;28;5719;-75
2023/07/04 01:24:06;;;;;;;;;;;;;;;24.96;45.54;96921.34;4217777;28;5757;-75
2023/07/04 01:26:25;;;;;;;;;;;;;;;24.94;45.76;96923.53;4217414;28;5624;-75
2023/07/04 01:28:29;;;;;;;;;;;;;;;24.95;45.63;96931.34;4208798;28;5834;-75
2023/07/04 01:30:38;;;;;;;;;;;;;;;24.96;45.69;96922.16;4217745;28;5632;-75
2023/07/04 01:32:42;;;;;;;;;;;;;;;24.96;45.49;96927.56;4217205;28;5624;-75
2023/07/04 01:34:45;;;;;;;;;;;;;;;24.97;46.10;96929.16;4217174;28;6667;-75
2023/07/04 01:36:49;;;;;;;;;;;;;;;24.96;45.73;96930.25;4216942;28;5111;-75
2023/07/04 01:38:52;;;;;;;;;;;;;;;24.96;45.97;96927.56;4217500;28;6326;-75
2023/07/04 01:40:55;;;;;;;;;;;;;;;24.96;45.71;96935.69;4221335;28;5672;-75
2023/07/04 01:43:00;;;;;;;;;;;;;;;24.96;45.60;96924.84;4227113;28;5102;-74
2023/07/04 01:45:05;;;;;;;;;;;;;;;24.96;45.55;96927.56;4229394;28;5614;-74
2023/07/04 01:47:08;;;;;;;;;;;;;;;24.94;46.06;96927.03;4223179;28;5642;-75
2023/07/04 01:49:11;;;;;;;;;;;;;;;24.93;45.72;96922.72;4220944;28;5613;-75
2023/07/04 01:51:14;;;;;;;;;;;;;;;24.94;45.60;96923.53;4220450;28;7152;-76
2023/07/04 01:53:17;;;;;;;;;;;;;;;24.94;45.79;96926.22;4220519;28;5705;-76
2023/07/04 01:55:20;;;;;;;;;;;;;;;24.93;46.12;96921.91;4220615;28;5653;-76
2023/07/04 01:57:23;;;;;;;;;;;;;;;24.92;46.06;96915.69;4220771;28;5616;-76
2023/07/04 01:59:28;;;;;;;;;;;;;;;24.93;46.06;96913.81;4229068;28;5676;-74
2023/07/04 02:01:31;;;;;;;;;;;;;;;24.92;46.16;96918.41;4236813;28;5733;-76
2023/07/04 02:03:34;;;;;;;;;;;;;;;24.92;46.00;96928.41;4228876;28;5605;-76
2023/07/04 02:05:37;;;;;;;;;;;;;;;24.91;46.13;96927.59;4228897;28;5934;-76
2023/07/04 02:07:41;;;;;;;;;;;;;;;24.90;46.00;96917.06;4220376;28;5733;-77
2023/07/04 02:09:44;;;;;;;;;;;;;;;24.89;46.25;96916.25;4220628;28;5619;-76
2023/07/04 02:11:47;;;;;;;;;;;;;;;24.88;46.10;96920.03;4220840;28;5653;-76
2023/07/04 02:13:50;;;;;;;;;;;;;;;24.86;46.67;96914.13;4225068;28;5597;-76
2023/07/04 02:15:55;;;;;;;;;;;;;;;24.86;46.58;96916.81;4239863;28;5677;-76
2023/07/04 02:17:58;;;;;;;;;;;;;;;24.87;46.87;96917.63;4229287;28;6424;-76
2023/07/04 02:20:01;;;;;;;;;;;;;;;24.86;46.40;96911.41;4223791;28;5608;-77
2023/07/04 02:22:04;;;;;;;;;;;;;;;24.85;46.70;96915.19;4220185;28;6463;-76
2023/07/04 02:24:07;;;;;;;;;;;;;;;24.84;46.83;96913.59;4220299;28;5641;-76
2023/07/04 02:26:10;;;;;;;;;;;;;;;24.84;46.82;96915.50;4226109;28;5604;-75
2023/07/04 02:28:13;;;;;;;;;;;;;;;24.81;46.97;96916.88;4228086;28;5724;-75
2023/07/04 02:30:16;;;;;;;;;;;;;;;24.81;47.06;96911.47;4237026;28;5664;-76
2023/07/04 02:32:20;;;;;;;;;;;;;;;24.81;46.83;96908.75;4237205;28;5593;-75
2023/07/04 02:34:23;;;;;;;;;;;;;;;24.83;47.03;96911.19;4220258;28;5793;-75
2023/07/04 02:36:26;;;;;;;;;;;;;;;24.82;47.18;96907.66;4219768;28;7780;-76
2023/07/04 02:38:29;;;;;;;;;;;;;;;24.79;46.79;96907.41;4220446;28;5616;-75
2023/07/04 02:40:32;;;;;;;;;;;;;;;24.80;46.96;96917.13;4237027;28;5614;-75
2023/07/04 02:42:35;;;;;;;;;;;;;;;24.79;47.20;96913.59;4227262;28;5612;-75
2023/07/04 02:44:38;;;;;;;;;;;;;;;24.80;47.27;96911.72;4219692;28;5967;-75
2023/07/04 02:46:41;;;;;;;;;;;;;;;24.80;46.99;96917.13;4230528;28;5625;-75
2023/07/04 02:48:45;;;;;;;;;;;;;;;24.78;47.14;96914.69;4225571;28;5624;-76
2023/07/04 02:50:48;;;;;;;;;;;;;;;24.78;47.06;96911.19;4228122;28;5608;-75
2023/07/04 02:52:51;;;;;;;;;;;;;;;24.75;47.36;96909.88;4228257;28;5624;-76
2023/07/04 02:54:54;;;;;;;;;;;;;;;24.74;47.14;96907.44;4223010;28;5672;-75
2023/07/04 02:56:57;;;;;;;;;;;;;;;24.75;47.60;96915.28;4223491;28;5614;-75
2023/07/04 02:59:00;;;;;;;;;;;;;;;24.75;47.23;96919.88;4219474;28;5623;-75
2023/07/04 03:01:05;;;;;;;;;;;;;;;24.73;47.40;96912.03;4227739;28;5829;-76
2023/07/04 03:03:08;;;;;;;;;;;;;;;24.74;47.28;96916.38;4219752;28;5697;-75
2023/07/04 03:05:12;;;;;;;;;;;;;;;24.75;47.80;96914.47;4228105;28;5734;-75
2023/07/04 03:07:15;;;;;;;;;;;;;;;24.73;47.43;96917.44;4219911;28;5722;-75
2023/07/04 03:09:18;;;;;;;;;;;;;;;24.73;47.54;96916.66;4219412;28;5627;-75
2023/07/04 03:11:21;;;;;;;;;;;;;;;24.73;47.77;96917.44;4235789;28;5620;-76
2023/07/04 03:13:24;;;;;;;;;;;;;;;24.73;47.38;96919.34;4236142;28;5186;-75
2023/07/04 03:15:27;;;;;;;;;;;;;;;24.72;47.87;96915.84;4228449;28;5616;-75
2023/07/04 03:17:30;;;;;;;;;;;;;;;24.72;47.95;96912.34;4228534;28;5395;-76
2023/07/04 03:19:33;;;;;;;;;;;;;;;24.72;47.73;96913.13;4227790;28;5629;-75
2023/07/04 03:21:37;;;;;;;;;;;;;;;24.72;47.50;96918.53;4226370;28;5628;-75
2023/07/04 03:23:40;;;;;;;;;;;;;;;24.72;47.47;96904.22;4229889;28;5585;-75
2023/07/04 03:25:43;;;;;;;;;;;;;;;24.71;47.89;96911.53;4225068;28;5620;-76
2023/07/04 03:27:46;;;;;;;;;;;;;;;24.71;47.76;96906.13;4227635;28;5632;-76
2023/07/04 03:29:49;;;;;;;;;;;;;;;24.69;47.76;96911.00;4230711;28;5669;-75
2023/07/04 03:31:52;;;;;;;;;;;;;;;24.67;47.67;96905.03;4227590;28;5717;-75
2023/07/04 03:33:54;;;;;;;;;;;;;;;24.66;47.74;96906.13;4223434;28;5740;-76
2023/07/04 03:35:58;;;;;;;;;;;;;;;24.65;47.93;96913.44;4218680;28;5605;-75
2023/07/04 03:38:04;;;;;;;;;;;;;;;24.64;47.61;96902.91;4219036;28;5735;-75
2023/07/04 03:40:09;;;;;;;;;;;;;;;24.63;47.59;96907.50;4227456;28;5625;-75
2023/07/04 03:42:13;;;;;;;;;;;;;;;24.61;47.85;96898.88;4218875;28;5629;-76
2023/07/04 03:44:15;;;;;;;;;;;;;;;24.61;47.68;96909.69;4218850;28;5718;-75
2023/07/04 03:46:18;;;;;;;;;;;;;;;24.60;47.15;96904.56;4227315;28;5688;-75
2023/07/04 03:48:21;;;;;;;;;;;;;;;24.59;47.47;96908.34;4218433;28;5627;-75
2023/07/04 03:50:24;;;;;;;;;;;;;;;24.59;47.41;96900.25;4218948;28;5714;-75
2023/07/04 03:52:27;;;;;;;;;;;;;;;24.59;47.30;96905.66;4227624;28;5618;-75
2023/07/04 03:54:32;;;;;;;;;;;;;;;24.58;47.32;96912.97;4227212;28;5616;-75
2023/07/04 03:56:35;;;;;;;;;;;;;;;24.57;47.47;96911.31;4225869;28;5644;-76
2023/07/04 03:58:37;;;;;;;;;;;;;;;24.57;47.31;96918.63;4220337;28;5616;-74
2023/07/04 04:00:40;;;;;;;;;;;;;;;24.57;47.02;96910.50;4233695;28;5600;-74
2023/07/04 04:02:43;;;;;;;;;;;;;;;24.54;47.43;96906.47;4221483;28;6400;-75
2023/07/04 04:04:47;;;;;;;;;;;;;;;24.54;47.03;96903.78;4232613;28;5724;-75
2023/07/04 04:06:51;;;;;;;;;;;;;;;24.52;47.06;96900.56;4217761;28;6315;-75
2023/07/04 04:08:54;;;;;;;;;;;;;;;24.52;47.23;96899.75;4218082;28;5719;-75
2023/07/04 04:10:59;;;;;;;;;;;;;;;24.52;46.90;96905.97;4217603;28;5618;-75
2023/07/04 04:13:01;;;;;;;;;;;;;;;24.50;47.12;96901.94;4212568;28;5635;-75
2023/07/04 04:15:05;;;;;;;;;;;;;;;24.50;47.15;96891.13;4212174;28;5624;-75
2023/07/04 04:17:08;;;;;;;;;;;;;;;24.50;47.36;96893.81;4224116;28;5647;-75
2023/07/04 04:19:11;;;;;;;;;;;;;;;24.49;47.00;96900.31;4226933;28;5600;-75
2023/07/04 04:21:14;;;;;;;;;;;;;;;24.47;47.26;96894.38;4224977;28;5749;-75
2023/07/04 04:23:17;;;;;;;;;;;;;;;24.46;46.89;96892.75;4228076;28;6569;-75
2023/07/04 04:25:20;;;;;;;;;;;;;;;24.45;46.91;96888.44;4233881;28;5612;-75
2023/07/04 04:27:26;;;;;;;;;;;;;;;24.43;47.30;96886.00;4226496;28;5602;-75
2023/07/04 04:29:30;;;;;;;;;;;;;;;24.43;47.09;96890.59;4209843;28;5834;-75
2023/07/04 04:31:33;;;;;;;;;;;;;;;24.41;47.33;96893.59;4218519;28;5745;-76
2023/07/04 04:33:36;;;;;;;;;;;;;;;24.41;47.24;96887.38;4218354;28;5816;-75
2023/07/04 04:35:40;;;;;;;;;;;;;;;24.42;47.22;96886.28;4219928;28;5818;-74
2023/07/04 04:37:43;;;;;;;;;;;;;;;24.41;47.25;96888.19;4224296;28;5616;-75
2023/07/04 04:39:46;;;;;;;;;;;;;;;24.43;47.19;96885.19;4218957;28;5696;-75
2023/07/04 04:41:52;;;;;;;;;;;;;;;24.44;46.91;96886.81;4226391;28;5762;-75
2023/07/04 04:43:58;;;;;;;;;;;;;;;24.44;46.67;96887.63;4217869;28;5609;-75
2023/07/04 04:46:01;;;;;;;;;;;;;;;24.44;47.01;96887.63;4223061;28;5771;-75
2023/07/04 04:48:06;;;;;;;;;;;;;;;24.42;46.70;96884.41;4234781;28;5600;-75
2023/07/04 04:50:09;;;;;;;;;;;;;;;24.43;46.78;96890.59;4220105;28;6444;-75
2023/07/04 04:52:13;;;;;;;;;;;;;;;24.44;46.81;96897.63;4217933;28;5616;-76
2023/07/04 04:54:17;;;;;;;;;;;;;;;24.45;47.19;96883.03;4217807;28;5670;-75
2023/07/04 04:56:20;;;;;;;;;;;;;;;24.44;46.73;96898.44;4217827;28;5754;-74
2023/07/04 04:58:23;;;;;;;;;;;;;;;24.43;46.55;96894.13;4218934;28;5613;-75
2023/07/04 05:00:27;;;;;;;;;;;;;;;24.44;46.71;96895.72;4220752;28;5616;-75
2023/07/04 05:02:30;;;;;;;;;;;;;;;24.44;46.84;96898.44;4204240;28;5631;-75
2023/07/04 05:04:34;;;;;;;;;;;;;;;24.43;46.97;96890.59;4217954;28;5632;-75
2023/07/04 05:06:37;;;;;;;;;;;;;;;24.43;46.82;96899.53;4225974;28;5581;-74
2023/07/04 05:08:40;;;;;;;;;;;;;;;24.45;46.56;96891.13;4217653;28;5756;-75
2023/07/04 05:10:43;;;;;;;;;;;;;;;24.44;46.73;96895.72;4216137;28;5605;-74
2023/07/04 05:12:45;;;;;;;;;;;;;;;24.42;46.61;96895.22;4212273;28;6033;-75
2023/07/04 05:14:48;;;;;;;;;;;;;;;24.44;46.60;96897.63;4214333;28;5700;-75
2023/07/04 05:16:53;;;;;;;;;;;;;;;24.44;46.91;96886.81;4214744;28;5625;-75
2023/07/04 05:18:56;;;;;;;;;;;;;;;24.44;46.98;96895.72;4221513;28;5609;-75
2023/07/04 05:21:03;;;;;;;;;;;;;;;24.43;46.76;96896.81;4212024;28;5642;-75
2023/07/04 05:23:07;;;;;;;;;;;;;;;24.45;46.97;96889.22;4214530;28;5640;-76
2023/07/04 05:25:10;;;;;;;;;;;;;;;24.44;46.78;96890.31;4208976;28;5765;-75
2023/07/04 05:27:15;;;;;;;;;;;;;;;24.46;46.78;96879.22;4217119;28;5710;-75
2023/07/04 05:29:18;;;;;;;;;;;;;;;24.50;46.64;96891.13;4216098;28;5719;-75
2023/07/04 05:31:24;;;;;;;;;;;;;;;24.55;46.86;96893.78;4217398;28;5617;-75
2023/07/04 05:33:29;;;;;;;;;;;;;;;24.67;46.87;96888.81;4209980;28;5609;-75
2023/07/04 05:35:32;;;;;;;;;;;;;;;24.79;46.76;96891.19;4217224;28;5723;-73
2023/07/04 05:37:36;;;;;;;;;;;;;;;24.89;46.90;96894.63;4215329;28;5805;-75
2023/07/04 05:39:39;;;;;;;;;;;;;;;25.01;46.87;96894.28;4208992;28;7784;-75
2023/07/04 05:41:42;;;;;;;;;;;;;;;25.11;46.70;96894.19;4207866;28;5623;-75
2023/07/04 05:43:45;;;;;;;;;;;;;;;25.21;46.71;96885.19;4211480;28;5612;-76
2023/07/04 05:45:48;;;;;;;;;;;;;;;25.32;46.19;96892.13;4215075;28;5810;-72
2023/07/04 05:47:51;;;;;;;;;;;;;;;25.41;46.41;96889.63;4209351;28;5920;-73
2023/07/04 05:49:55;;;;;;;;;;;;;;;25.49;46.38;96889.00;4210307;28;5668;-76
2023/07/04 05:51:58;;;;;;;;;;;;;;;25.59;46.21;96891.56;4214451;28;5071;-74
2023/07/04 05:54:01;;;;;;;;;;;;;;;25.68;46.42;96889.84;4214706;28;5740;-74
2023/07/04 05:56:08;;;;;;;;;;;;;;;25.73;46.37;96892.56;4222251;28;5721;-76
2023/07/04 05:58:11;;;;;;;;;;;;;;;25.81;46.24;96902.72;4226457;28;5605;-75
2023/07/04 06:00:15;;;;;;;;;;;;;;;25.88;46.26;96894.28;4212156;28;5695;-74
2023/07/04 06:02:18;;;;;;;;;;;;;;;25.92;46.01;96906.13;4216322;28;5743;-74
2023/07/04 06:04:21;;;;;;;;;;;;;;;25.98;45.92;96904.19;4216732;28;5154;-73
2023/07/04 06:06:30;;;;;;;;;;;;;;;26.02;45.97;96911.44;4216652;28;5608;-74
2023/07/04 06:08:34;;;;;;;;;;;;;;;26.01;45.91;96904.41;4217043;28;5704;-74
2023/07/04 06:10:37;;;;;;;;;;;;;;;26.00;46.16;96910.94;4205847;28;5102;-75
2023/07/04 06:12:42;;;;;;;;;;;;;;;25.94;46.15;96906.69;4216813;28;5620;-75
2023/07/04 06:14:44;;;;;;;;;;;;;;;25.89;46.11;96898.59;4216806;28;5612;-74
2023/07/04 06:16:47;;;;;;;;;;;;;;;25.91;46.02;96903.72;4216193;28;5645;-75
2023/07/04 06:18:51;;;;;;;;;;;;;;;25.91;46.30;96898.31;4215199;28;5671;-75
2023/07/04 06:20:54;;;;;;;;;;;;;;;25.93;46.33;96905.03;4217576;28;6261;-74
2023/07/04 06:22:58;;;;;;;;;;;;;;;25.87;46.06;96905.41;4215882;28;5862;-75
2023/07/04 06:25:01;;;;;;;;;;;;;;;25.80;46.61;96898.41;4217896;28;5623;-75
2023/07/04 06:27:07;;;;;;;;;;;;;;;25.77;46.57;96895.50;4215764;28;5613;-75
2023/07/04 06:29:10;;;;;;;;;;;;;;;25.73;46.35;96899.88;4214020;28;5611;-75
2023/07/04 06:31:15;;;;;;;;;;;;;;;25.68;46.38;96894.47;4219667;28;5741;-75
2023/07/04 06:33:18;;;;;;;;;;;;;;;25.65;46.62;96900.47;4231726;28;5633;-75
2023/07/04 06:35:21;;;;;;;;;;;;;;;25.66;46.90;96900.16;4221267;28;5741;-75
2023/07/04 06:37:24;;;;;;;;;;;;;;;25.70;46.65;96897.72;4218814;28;5220;-75
2023/07/04 06:39:28;;;;;;;;;;;;;;;25.70;46.61;96890.41;4215571;28;5950;-75
2023/07/04 06:41:31;;;;;;;;;;;;;;;25.68;46.88;96889.06;4219754;28;5620;-75
2023/07/04 06:43:35;;;;;;;;;;;;;;;25.59;46.69;96890.75;4226125;28;5709;-74
2023/07/04 06:45:38;;;;;;;;;;;;;;;25.52;46.80;96891.94;4229988;28;5709;-75
2023/07/04 06:47:41;;;;;;;;;;;;;;;25.50;46.89;96896.84;4233435;28;5683;-74
2023/07/04 06:49:44;;;;;;;;;;;;;;;25.47;46.99;96893.88;4227962;28;5631;-74
2023/07/04 06:51:47;;;;;;;;;;;;;;;25.48;47.45;96900.88;4221349;28;5608;-75
2023/07/04 06:53:50;;;;;;;;;;;;;;;25.48;47.54;96896.31;4219387;28;5620;-75
2023/07/04 06:56:05;;;;;;;;;;;;;;;25.48;47.31;96901.72;4219147;28;5608;-75
2023/07/04 06:58:08;;;;;;;;;;;;;;;25.47;47.27;96912.81;4225542;28;5704;-75
2023/07/04 07:00:13;;;;;;;;;;;;;;;25.48;47.32;96906.31;4221304;28;5100;-75
2023/07/04 07:02:16;;;;;;;;;;;;;;;25.44;47.12;96900.66;4213340;28;5655;-75
2023/07/04 07:04:20;;;;;;;;;;;;;;;25.45;47.28;96896.06;4214609;28;5691;-74
2023/07/04 07:06:23;;;;;;;;;;;;;;;25.46;47.31;96903.88;4226098;28;5773;-75
2023/07/04 07:08:26;;;;;;;;;;;;;;;25.44;47.05;96895.25;4209747;28;5611;-74
2023/07/04 07:10:31;;;;;;;;;;;;;;;25.48;47.32;96907.13;4217909;28;5612;-74
2023/07/04 07:12:37;;;;;;;;;;;;;;;25.48;47.48;96912.56;4217950;28;7812;-74
2023/07/04 07:14:40;;;;;;;;;;;;;;;25.49;47.22;96903.34;4218021;28;5619;-74
2023/07/04 07:16:43;;;;;;;;;;;;;;;25.50;47.25;96909.56;4217962;28;5706;-74
2023/07/04 07:18:47;;;;;;;;;;;;;;;25.49;47.39;96903.34;4229578;28;5680;-74
2023/07/04 07:20:58;;;;;;;;;;;;;;;25.48;47.17;96911.72;4226673;28;5606;-74
2023/07/04 07:23:01;;;;;;;;;;;;;;;25.48;47.42;96917.97;4224299;28;5665;-74
2023/07/04 07:25:05;;;;;;;;;;;;;;;25.48;47.55;96915.25;4228623;28;5608;-74
2023/07/04 07:27:08;;;;;;;;;;;;;;;25.45;47.72;96913.09;4216942;28;5612;-73
2023/07/04 07:29:13;;;;;;;;;;;;;;;25.42;47.82;96907.47;4211743;28;5804;-74
2023/07/04 07:31:18;;;;;;;;;;;;;;;25.44;47.66;96916.91;4223116;28;6914;-75
2023/07/04 07:33:21;;;;;;;;;;;;;;;25.45;47.71;96913.09;4234758;28;5716;-74
2023/07/04 07:35:24;;;;;;;;;;;;;;;25.45;47.63;96907.69;4226282;28;5699;-75
2023/07/04 07:37:27;;;;;;;;;;;;;;;25.44;47.51;96908.78;4225261;28;6634;-74
2023/07/04 07:39:30;;;;;;;;;;;;;;;25.43;47.85;96914.47;4226248;28;5624;-74
2023/07/04 07:41:37;;;;;;;;;;;;;;;25.41;47.53;96906.66;4217866;28;5715;-74
2023/07/04 07:43:42;;;;;;;;;;;;;;;25.41;47.61;96903.94;4216689;28;5791;-74
2023/07/04 07:45:47;;;;;;;;;;;;;;;25.43;47.51;96904.47;4214847;28;5819;-74
2023/07/04 07:47:50;;;;;;;;;;;;;;;25.44;47.81;96908.78;4217624;28;5631;-74
2023/07/04 07:49:53;;;;;;;;;;;;;;;25.45;47.75;96902.28;4218390;28;5601;-74
2023/07/04 07:51:56;;;;;;;;;;;;;;;25.48;47.60;96899.03;4214900;28;5695;-74
2023/07/04 07:54:00;;;;;;;;;;;;;;;25.48;47.38;96904.44;4217318;28;5698;-74
2023/07/04 07:56:04;;;;;;;;;;;;;;;25.52;47.36;96902.75;4215721;28;5727;-74
2023/07/04 07:58:08;;;;;;;;;;;;;;;25.54;47.20;96905.97;4225552;28;5728;-74
2023/07/04 08:00:12;;;;;;;;;;;;;;;25.58;47.13;96895.38;4217453;28;5711;-74
2023/07/04 08:02:16;;;;;;;;;;;;;;;25.60;46.96;96905.94;4225153;28;5955;-74
2023/07/04 08:04:19;;;;;;;;;;;;;;;25.62;47.08;96903.75;4216581;28;5619;-74
2023/07/04 08:06:25;;;;;;;;;;;;;;;25.61;47.13;96904.84;4226502;28;5731;-74
2023/07/04 08:08:28;;;;;;;;;;;;;;;25.61;47.07;96899.44;4218277;28;5848;-74
2023/07/04 08:10:35;;;;;;;;;;;;;;;25.63;47.09;96899.94;4221146;28;5642;-74
2023/07/04 08:12:38;;;;;;;;;;;;;;;25.63;46.85;96897.25;4218341;28;5790;-74
2023/07/04 08:14:41;;;;;;;;;;;;;;;25.64;46.77;96902.38;4223462;28;5628;-74
2023/07/04 08:16:46;;;;;;;;;;;;;;;25.66;46.83;96902.06;4219505;28;5532;-74
2023/07/04 08:18:51;;;;;;;;;;;;;;;25.69;46.38;96898.78;4219064;28;5617;-74
2023/07/04 08:20:58;;;;;;;;;;;;;;;25.73;46.41;96902.59;4208234;28;5726;-75
2023/07/04 08:23:01;;;;;;;;;;;;;;;25.73;46.28;96900.69;4216839;28;5175;-74
2023/07/04 08:25:05;;;;;;;;;;;;;;;25.72;46.07;96890.13;4217202;28;5739;-73
2023/07/04 08:27:08;;;;;;;;;;;;;;;25.67;46.35;96893.66;4218778;28;5609;-74
2023/07/04 08:29:11;;;;;;;;;;;;;;;25.68;46.37;96900.69;4212635;28;5529;-73
2023/07/04 08:31:18;;;;;;;;;;;;;;;25.66;46.01;96900.16;4217152;28;5657;-74
2023/07/04 08:33:21;;;;;;;;;;;;;;;25.65;45.97;96892.34;4215679;28;6327;-74
2023/07/04 08:35:26;;;;;;;;;;;;;;;25.64;45.82;96894.25;4216898;28;5536;-74
2023/07/04 08:37:29;;;;;;;;;;;;;;;25.62;46.22;96893.72;4208232;28;5828;-74
2023/07/04 08:39:31;;;;;;;;;;;;;;;25.58;45.73;96889.97;4217224;28;5628;-74
2023/07/04 08:41:43;;;;;;;;;;;;;;;25.55;45.74;96893.25;4219873;28;5696;-74
2023/07/04 08:43:51;;;;;;;;;;;;;;;25.53;45.96;96890.84;4216108;28;5926;-74
2023/07/04 08:45:57;;;;;;;;;;;;;;;25.53;45.91;96890.03;4224503;28;5732;-76
2023/07/04 08:48:00;;;;;;;;;;;;;;;25.51;45.61;96894.94;4216165;28;6811;-76
2023/07/04 08:50:06;;;;;;;;;;;;;;;25.50;45.40;96891.41;4216514;28;5718;-75
2023/07/04 08:52:16;;;;;;;;;;;;;;;25.49;45.70;96895.22;4215556;28;5596;-75
2023/07/04 08:54:19;;;;;;;;;;;;;;;25.49;45.66;96891.72;4216007;28;5696;-75
2023/07/04 08:56:33;;;;;;;;;;;;;;;25.48;45.82;96890.91;4223493;28;5688;-75
2023/07/04 08:58:41;;;;;;;;;;;;;;;25.46;45.70;96892.25;4215120;28;5709;-75
2023/07/04 09:00:45;;;;;;;;;;;;;;;25.45;45.80;96891.44;4216451;28;5653;-74
2023/07/04 09:02:54;;;;;;;;;;;;;;;25.46;45.63;96898.47;4218133;28;5613;-74
2023/07/04 09:05:06;;;;;;;;;;;;;;;25.45;45.37;96891.44;4221936;28;5598;-75
2023/07/04 09:07:22;;;;;;;;;;;;;;;25.45;45.59;96888.75;4221885;28;6310;-74
2023/07/04 09:09:46;;;;;;;;;;;;;;;25.42;45.59;96891.22;4208116;28;5616;-75
2023/07/04 09:11:50;;;;;;;;;;;;;;;25.39;45.25;96889.91;4215275;28;5620;-74
2023/07/04 09:13:58;;;;;;;;;;;;;;;25.35;45.43;96882.63;4217181;28;5722;-74
2023/07/04 09:16:05;;;;;;;;;;;;;;;25.38;45.29;96885.59;4221374;28;6653;-75
2023/07/04 09:18:19;;;;;;;;;;;;;;;25.38;45.43;96882.88;4219633;28;5594;-74
2023/07/04 09:20:25;;;;;;;;;;;;;;;25.37;45.44;96881.28;4216681;28;5687;-74
2023/07/04 09:22:29;;;;;;;;;;;;;;;25.35;45.34;96883.44;4214791;28;5629;-74
2023/07/04 09:24:32;;;;;;;;;;;;;;;25.36;45.46;96887.75;4221989;28;5103;-75
2023/07/04 09:26:42;;;;;;;;;;;;;;;25.36;45.08;96871.50;4216155;28;5711;-76
2023/07/04 09:28:47;;;;;;;;;;;;;;;25.36;44.93;96884.22;4214511;28;5834;-75
2023/07/04 09:30:50;;;;;;;;;;;;;;;25.36;45.05;96882.34;4216333;28;5839;-75
2023/07/04 09:32:53;;;;;;;;;;;;;;;25.36;45.16;96879.63;4225937;28;6472;-75
2023/07/04 09:35:03;;;;;;;;;;;;;;;25.37;45.28;96875.03;4214886;28;5616;-75
2023/07/04 09:37:12;;;;;;;;;;;;;;;25.40;45.40;96882.59;4226132;28;5590;-75
2023/07/04 09:39:16;;;;;;;;;;;;;;;25.40;45.50;96883.41;4213902;28;5699;-75
2023/07/04 09:41:19;;;;;;;;;;;;;;;25.44;45.17;96883.63;4215516;28;5645;-74
2023/07/04 09:43:29;;;;;;;;;;;;;;;25.46;45.12;96882.22;4224830;28;5719;-74
2023/07/04 09:45:32;;;;;;;;;;;;;;;25.45;45.23;96875.22;4212932;28;5620;-74
2023/07/04 09:47:36;;;;;;;;;;;;;;;25.44;45.07;96879.00;4209447;28;8412;-74
2023/07/04 09:49:40;;;;;;;;;;;;;;;25.45;45.56;96880.63;4223612;28;5676;-74
2023/07/04 09:51:43;;;;;;;;;;;;;;;25.44;45.35;96873.59;4229659;28;6460;-74
2023/07/04 09:53:46;;;;;;;;;;;;;;;25.45;45.07;96875.22;4220527;28;5751;-75
2023/07/04 09:56:01;;;;;;;;;;;;;;;25.45;45.31;96875.22;4219656;28;5624;-76
2023/07/04 09:58:17;;;;;;;;;;;;;;;25.43;44.93;96872.00;4215524;28;5703;-75
2023/07/04 10:00:23;;;;;;;;;;;;;;;25.43;45.05;96879.31;4223784;28;5067;-74
2023/07/04 10:02:33;;;;;;;;;;;;;;;25.43;44.78;96873.88;4205231;28;5732;-74
2023/07/04 10:04:40;;;;;;;;;;;;;;;25.45;44.64;96866.28;4220238;28;5616;-76
2023/07/04 10:06:46;;;;;;;;;;;;;;;25.45;44.64;96863.59;4220756;28;5759;-75
2023/07/04 10:08:54;;;;;;;;;;;;;;;25.46;44.59;96866.00;4228157;28;6298;-76
2023/07/04 10:10:59;;;;;;;;;;;;;;;25.46;44.81;96874.13;4225083;28;5601;-76
2023/07/04 10:13:03;;;;;;;;;;;;;;;25.46;44.90;96865.19;4222149;28;5600;-76
2023/07/04 10:15:07;;;;;;;;;;;;;;;25.46;44.66;96867.91;4218167;28;5684;-74
2023/07/04 10:17:15;;;;;;;;;;;;;;;25.45;44.66;96864.38;4218922;28;5656;-75
2023/07/04 10:19:21;;;;;;;;;;;;;;;25.44;44.60;96868.19;4201339;28;5722;-75
2023/07/04 10:21:23;;;;;;;;;;;;;;;25.45;44.29;96869.00;4218008;28;5723;-73
2023/07/04 10:23:29;;;;;;;;;;;;;;;25.43;44.53;96863.88;4222033;28;5107;-74
2023/07/04 10:25:33;;;;;;;;;;;;;;;25.44;44.57;96862.78;4211716;28;5787;-74
2023/07/04 10:27:40;;;;;;;;;;;;;;;25.44;44.63;96860.06;4203071;28;5624;-74
2023/07/04 10:29:49;;;;;;;;;;;;;;;25.45;44.19;96864.38;4228195;28;5700;-74
2023/07/04 10:31:52;;;;;;;;;;;;;;;25.49;44.41;96861.94;4222077;28;5752;-74
2023/07/04 10:34:00;;;;;;;;;;;;;;;25.50;44.17;96861.63;4216481;28;5675;-73
2023/07/04 10:36:03;;;;;;;;;;;;;;;25.52;44.32;96864.06;4226438;28;5700;-73
2023/07/04 10:38:15;;;;;;;;;;;;;;;25.54;44.13;96861.88;4219683;28;5624;-73
2023/07/04 10:40:20;;;;;;;;;;;;;;;25.55;43.98;96863.47;4220166;28;5805;-75
2023/07/04 10:42:27;;;;;;;;;;;;;;;25.57;44.12;96861.28;4227905;28;5668;-74
2023/07/04 10:44:36;;;;;;;;;;;;;;;25.60;43.92;96854.50;4219827;28;5706;-75
2023/07/04 10:46:49;;;;;;;;;;;;;;;25.59;44.06;96856.38;4232893;28;5660;-75
2023/07/04 10:48:58;;;;;;;;;;;;;;;25.62;44.05;96847.72;4218541;28;5600;-74
2023/07/04 10:51:09;;;;;;;;;;;;;;;25.62;43.80;96853.13;4218515;28;5743;-75
2023/07/04 10:53:13;;;;;;;;;;;;;;;25.63;44.08;96843.09;4209621;28;5734;-74
2023/07/04 10:55:21;;;;;;;;;;;;;;;25.64;43.94;96844.72;4224607;28;5731;-75
2023/07/04 10:57:33;;;;;;;;;;;;;;;25.66;43.57;96842.50;4219911;28;5718;-74